createdAt,value
2018-05-07T00:00:03.600Z,17.90
2018-05-07T00:02:29.562Z,17.80
2018-05-07T00:04:55.584Z,17.80
2018-05-07T00:07:21.606Z,17.90
2018-05-07T00:09:47.629Z,17.90
2018-05-07T00:12:13.677Z,17.90
2018-05-07T00:14:39.652Z,17.80
2018-05-07T00:17:05.780Z,17.90
2018-05-07T00:19:31.781Z,18.00
2018-05-07T00:21:57.853Z,18.20
2018-05-07T00:24:23.877Z,18.20
2018-05-07T00:26:49.904Z,18.20
2018-05-07T00:29:15.992Z,18.20
2018-05-07T00:31:42.020Z,18.20
2018-05-07T00:34:07.993Z,18.10
2018-05-07T00:36:33.991Z,18.10
2018-05-07T00:38:59.995Z,18.00
2018-05-07T00:41:26.017Z,18.00
2018-05-07T00:43:52.084Z,18.00
2018-05-07T00:46:18.219Z,18.00
2018-05-07T00:48:44.265Z,17.90
2018-05-07T00:51:10.236Z,17.90
2018-05-07T00:53:36.274Z,17.90
2018-05-07T00:56:02.355Z,17.70
2018-05-07T00:58:28.354Z,17.70
2018-05-07T01:00:54.343Z,17.70
2018-05-07T01:03:20.374Z,17.60
2018-05-07T01:05:46.398Z,17.70
2018-05-07T01:08:12.417Z,17.70
2018-05-07T01:10:38.394Z,17.70
2018-05-07T01:13:04.417Z,17.50
2018-05-07T01:15:30.362Z,17.40
2018-05-07T01:17:56.414Z,17.50
2018-05-07T01:20:22.529Z,17.50
2018-05-07T01:22:48.482Z,17.60
2018-05-07T01:25:14.483Z,17.60
2018-05-07T01:27:40.447Z,17.60
2018-05-07T01:30:06.426Z,17.60
2018-05-07T01:32:32.423Z,17.50
2018-05-07T01:34:58.446Z,17.50
2018-05-07T01:37:24.433Z,17.50
2018-05-07T01:39:50.460Z,17.50
2018-05-07T01:42:16.517Z,17.60
2018-05-07T01:44:42.553Z,17.50
2018-05-07T01:47:08.559Z,17.50
2018-05-07T01:49:34.581Z,17.40
2018-05-07T01:52:00.612Z,17.40
2018-05-07T01:54:26.556Z,17.40
2018-05-07T01:56:52.548Z,17.40
2018-05-07T01:59:18.575Z,17.40
2018-05-07T02:01:44.579Z,17.40
2018-05-07T02:04:10.650Z,17.40
2018-05-07T02:06:36.654Z,17.40
2018-05-07T02:09:02.653Z,17.40
2018-05-07T02:11:28.740Z,17.30
2018-05-07T02:13:54.735Z,17.20
2018-05-07T02:16:20.764Z,17.30
2018-05-07T02:18:46.772Z,17.30
2018-05-07T02:21:12.781Z,17.30
2018-05-07T02:23:38.809Z,17.10
2018-05-07T02:26:04.869Z,17.10
2018-05-07T02:28:30.886Z,17.00
2018-05-07T02:30:56.862Z,16.90
2018-05-07T02:33:22.921Z,16.80
2018-05-07T02:35:48.935Z,16.80
2018-05-07T02:38:14.954Z,16.70
2018-05-07T02:40:40.953Z,16.70
2018-05-07T02:43:06.973Z,16.60
2018-05-07T02:45:32.975Z,16.60
2018-05-07T02:47:59.028Z,16.60
2018-05-07T02:50:25.155Z,16.50
2018-05-07T02:52:51.191Z,16.50
2018-05-07T02:55:17.197Z,16.40
2018-05-07T02:57:43.223Z,16.40
2018-05-07T03:00:09.257Z,16.40
2018-05-07T03:02:35.229Z,16.30
2018-05-07T03:05:01.191Z,16.30
2018-05-07T03:07:27.247Z,16.10
2018-05-07T03:09:53.232Z,16.00
2018-05-07T03:12:19.304Z,16.00
2018-05-07T03:14:45.332Z,16.00
2018-05-07T03:17:11.325Z,16.00
2018-05-07T03:19:37.313Z,16.00
2018-05-07T03:22:03.673Z,16.20
2018-05-07T03:24:29.813Z,16.30
2018-05-07T03:26:55.864Z,16.30
2018-05-07T03:29:21.891Z,16.20
2018-05-07T03:31:47.861Z,16.10
2018-05-07T03:34:14.168Z,16.00
2018-05-07T03:36:40.159Z,16.00
2018-05-07T03:39:06.141Z,15.90
2018-05-07T03:41:32.184Z,15.80
2018-05-07T03:43:58.187Z,15.80
2018-05-07T03:46:24.212Z,16.00
2018-05-07T03:48:50.228Z,16.00
2018-05-07T03:51:16.220Z,15.90
2018-05-07T03:53:42.203Z,15.80
2018-05-07T03:56:08.253Z,15.70
2018-05-07T03:58:34.353Z,15.70
2018-05-07T04:01:01.085Z,15.60
2018-05-07T04:03:27.234Z,15.70
2018-05-07T04:05:53.229Z,15.80
2018-05-07T04:08:19.234Z,15.80
2018-05-07T04:10:45.785Z,15.80
2018-05-07T04:13:11.796Z,15.70
2018-05-07T04:15:37.812Z,15.60
2018-05-07T04:18:16.157Z,15.70
2018-05-07T04:20:54.460Z,15.70
2018-05-07T04:23:32.925Z,15.60
2018-05-07T04:25:58.893Z,15.50
2018-05-07T04:28:24.998Z,15.40
2018-05-07T04:30:51.016Z,15.50
2018-05-07T04:33:17.065Z,15.60
2018-05-07T04:35:43.038Z,15.70
2018-05-07T04:38:09.763Z,15.60
2018-05-07T04:40:35.892Z,15.70
2018-05-07T04:43:01.927Z,15.90
2018-05-07T04:45:28.727Z,15.90
2018-05-07T04:47:54.805Z,16.00
2018-05-07T04:50:20.819Z,15.90
2018-05-07T04:52:46.805Z,15.90
2018-05-07T04:55:14.160Z,15.90
2018-05-07T04:57:40.183Z,15.80
2018-05-07T05:00:06.152Z,15.80
2018-05-07T05:02:32.344Z,15.80
2018-05-07T05:04:58.346Z,15.90
2018-05-07T05:07:24.376Z,16.00
2018-05-07T05:09:50.432Z,16.00
2018-05-07T05:12:16.489Z,16.10
2018-05-07T05:14:42.506Z,16.10
2018-05-07T05:17:08.597Z,16.10
2018-05-07T05:19:34.578Z,16.10
2018-05-07T05:22:00.537Z,16.10
2018-05-07T05:24:26.569Z,16.10
2018-05-07T05:26:52.577Z,16.20
2018-05-07T05:29:18.835Z,16.30
2018-05-07T05:31:44.931Z,16.30
2018-05-07T05:34:11.058Z,16.20
2018-05-07T05:36:37.072Z,16.20
2018-05-07T05:39:03.053Z,16.40
2018-05-07T05:41:29.093Z,16.30
2018-05-07T05:43:55.026Z,16.30
2018-05-07T05:46:21.218Z,16.40
2018-05-07T05:48:47.303Z,16.40
2018-05-07T05:51:13.272Z,16.60
2018-05-07T05:53:39.372Z,16.60
2018-05-07T05:56:05.382Z,16.50
2018-05-07T05:58:31.340Z,16.40
2018-05-07T06:00:57.339Z,16.40
2018-05-07T06:03:23.351Z,16.50
2018-05-07T06:05:49.289Z,16.60
2018-05-07T06:08:15.332Z,16.70
2018-05-07T06:10:41.384Z,16.90
2018-05-07T06:13:08.382Z,16.80
2018-05-07T06:15:34.380Z,16.70
2018-05-07T06:18:00.583Z,16.80
2018-05-07T06:20:26.685Z,17.00
2018-05-07T06:22:52.625Z,17.20
2018-05-07T06:25:19.685Z,17.40
2018-05-07T06:27:45.739Z,17.40
2018-05-07T06:30:11.753Z,17.50
2018-05-07T06:32:37.760Z,17.70
2018-05-07T06:35:03.859Z,17.60
2018-05-07T06:37:29.977Z,17.60
2018-05-07T06:39:55.967Z,17.90
2018-05-07T06:42:21.940Z,18.00
2018-05-07T06:44:47.900Z,18.00
2018-05-07T06:47:13.940Z,18.00
2018-05-07T06:49:40.149Z,18.10
2018-05-07T06:52:06.315Z,18.20
2018-05-07T06:54:32.311Z,18.30
2018-05-07T06:56:58.369Z,18.40
2018-05-07T06:59:24.522Z,18.40
2018-05-07T07:01:50.548Z,18.30
2018-05-07T07:04:17.380Z,18.40
2018-05-07T07:06:43.590Z,18.40
2018-05-07T07:09:09.596Z,18.50
2018-05-07T07:11:36.541Z,18.60
2018-05-07T07:14:02.610Z,18.80
2018-05-07T07:16:28.665Z,18.80
2018-05-07T07:35:39.058Z,19.10
2018-05-07T07:38:05.139Z,19.20
2018-05-07T07:40:32.092Z,19.30
2018-05-07T07:42:58.169Z,19.30
2018-05-07T07:45:25.153Z,19.60
2018-05-07T07:47:51.374Z,19.60
2018-05-07T07:50:26.870Z,19.60
2018-05-07T07:52:54.051Z,19.70
2018-05-07T07:55:20.984Z,19.80
2018-05-07T07:57:47.214Z,19.90
2018-05-07T08:00:13.976Z,19.90
2018-05-07T08:02:40.017Z,19.90
2018-05-07T08:05:06.459Z,19.70
2018-05-07T08:07:33.206Z,19.60
2018-05-07T08:09:59.328Z,19.60
2018-05-07T08:12:26.089Z,19.70
2018-05-07T08:14:52.318Z,19.80
2018-05-07T08:17:18.396Z,19.70
2018-05-07T08:19:44.550Z,19.80
2018-05-07T08:22:11.436Z,19.80
2018-05-07T08:24:39.133Z,20.00
2018-05-07T08:27:09.773Z,20.30
2018-05-07T08:29:36.824Z,20.50
2018-05-07T08:32:03.060Z,20.70
2018-05-07T08:34:30.076Z,20.70
2018-05-07T08:36:58.030Z,20.80
2018-05-07T08:39:25.121Z,20.80
2018-05-07T08:41:51.258Z,20.80
2018-05-07T08:44:17.307Z,21.00
2018-05-07T08:46:43.382Z,21.20
2018-05-07T08:49:09.381Z,21.20
2018-05-07T08:51:35.511Z,21.20
2018-05-07T08:54:01.677Z,21.40
2018-05-07T08:56:27.732Z,21.40
2018-05-07T08:58:53.788Z,21.60
2018-05-07T09:01:19.861Z,21.70
2018-05-07T09:03:45.870Z,21.80
2018-05-07T09:06:11.915Z,21.90
2018-05-07T09:08:38.037Z,21.90
2018-05-07T09:11:04.157Z,21.80
2018-05-07T09:13:30.294Z,21.80
2018-05-07T09:15:56.367Z,21.90
2018-05-07T09:18:22.434Z,22.00
2018-05-07T09:20:48.518Z,22.20
2018-05-07T09:23:14.552Z,22.20
2018-05-07T09:25:40.571Z,22.20
2018-05-07T09:28:06.623Z,22.20
2018-05-07T09:30:32.735Z,22.20
2018-05-07T09:32:58.729Z,22.20
2018-05-07T09:35:24.741Z,22.30
2018-05-07T09:37:50.824Z,22.30
2018-05-07T09:40:16.865Z,22.40
2018-05-07T09:42:42.942Z,22.40
2018-05-07T09:45:09.031Z,22.10
2018-05-07T09:47:35.061Z,21.90
2018-05-07T09:50:01.296Z,22.10
2018-05-07T09:52:28.432Z,22.40
2018-05-07T09:54:54.479Z,22.40
2018-05-07T09:57:22.074Z,22.60
2018-05-07T09:59:48.662Z,22.60
2018-05-07T10:02:14.729Z,22.60
2018-05-07T10:04:40.701Z,22.70
2018-05-07T10:07:06.956Z,22.90
2018-05-07T10:09:32.979Z,23.10
2018-05-07T10:11:59.061Z,23.00
2018-05-07T10:14:25.929Z,23.00
2018-05-07T10:16:51.990Z,23.00
2018-05-07T10:19:18.728Z,23.20
2018-05-07T10:21:44.746Z,23.30
2018-05-07T10:24:10.827Z,23.40
2018-05-07T10:26:37.727Z,23.50
2018-05-07T10:29:03.841Z,23.50
2018-05-07T10:31:29.879Z,23.60
2018-05-07T10:33:55.874Z,23.60
2018-05-07T10:36:21.942Z,23.50
2018-05-07T10:38:48.232Z,23.70
2018-05-07T10:41:14.296Z,23.90
2018-05-07T10:43:40.481Z,23.90
2018-05-07T10:46:06.645Z,24.00
2018-05-07T10:48:32.629Z,24.10
2018-05-07T10:50:58.648Z,24.20
2018-05-07T10:53:24.668Z,24.40
2018-05-07T10:55:50.760Z,24.50
2018-05-07T10:58:16.810Z,24.40
2018-05-07T11:00:42.961Z,24.40
2018-05-07T11:03:08.982Z,24.50
2018-05-07T11:05:35.057Z,24.70
2018-05-07T11:08:01.132Z,24.60
2018-05-07T11:10:27.080Z,24.30
2018-05-07T11:12:53.143Z,24.30
2018-05-07T11:15:20.472Z,24.20
2018-05-07T11:17:46.501Z,24.60
2018-05-07T11:20:12.576Z,24.80
2018-05-07T11:22:38.648Z,25.20
2018-05-07T11:25:05.373Z,25.00
2018-05-07T11:27:31.293Z,25.00
2018-05-07T11:29:57.339Z,24.60
2018-05-07T11:32:23.517Z,24.60
2018-05-07T11:34:49.682Z,24.60
2018-05-07T11:37:15.728Z,24.40
2018-05-07T11:39:44.893Z,24.80
2018-05-07T11:42:11.962Z,25.30
2018-05-07T11:44:41.658Z,25.70
2018-05-07T11:47:08.000Z,26.00
2018-05-07T11:49:34.207Z,26.00
2018-05-07T11:52:00.368Z,25.90
2018-05-07T11:54:26.586Z,25.70
2018-05-07T11:56:53.544Z,25.80
2018-05-07T11:59:19.695Z,25.90
2018-05-07T12:01:45.856Z,26.00
2018-05-07T12:04:44.105Z,26.20
2018-05-07T12:07:10.872Z,26.50
2018-05-07T12:09:37.579Z,26.80
2018-05-07T12:12:06.319Z,26.70
2018-05-07T12:14:35.106Z,26.70
2018-05-07T12:17:02.063Z,26.90
2018-05-07T12:19:30.935Z,27.00
2018-05-07T12:21:57.940Z,26.90
2018-05-07T12:24:24.803Z,26.90
2018-05-07T12:26:51.890Z,26.80
2018-05-07T12:29:18.103Z,27.10
2018-05-07T12:31:44.417Z,27.40
2018-05-07T12:34:10.545Z,27.40
2018-05-07T12:36:36.661Z,27.80
2018-05-07T12:39:02.684Z,27.80
2018-05-07T12:41:29.634Z,27.80
2018-05-07T12:43:56.551Z,27.80
2018-05-07T12:46:22.680Z,27.80
2018-05-07T12:48:50.500Z,27.90
2018-05-07T12:51:16.718Z,28.20
2018-05-07T12:53:43.435Z,28.50
2018-05-07T12:56:10.255Z,28.80
2018-05-07T13:12:49.723Z,29.40
2018-05-07T13:15:15.738Z,29.20
2018-05-07T13:17:41.821Z,28.70
2018-05-07T13:20:07.942Z,28.60
2018-05-07T13:22:34.192Z,28.80
2018-05-07T13:25:00.225Z,29.10
2018-05-07T13:27:26.904Z,29.50
2018-05-07T13:29:53.003Z,29.70
2018-05-07T13:32:19.134Z,29.80
2018-05-07T13:34:45.220Z,30.10
2018-05-07T13:37:11.263Z,30.20
2018-05-07T13:39:37.442Z,30.40
2018-05-07T13:42:04.364Z,30.50
2018-05-07T13:44:37.423Z,30.70
2018-05-07T13:47:03.456Z,30.60
2018-05-07T13:49:29.943Z,30.60
2018-05-07T13:51:56.607Z,30.70
2018-05-07T13:54:24.983Z,30.80
2018-05-07T13:56:52.032Z,30.80
2018-05-07T13:59:18.512Z,30.50
2018-05-07T14:01:45.032Z,30.30
2018-05-07T14:04:11.152Z,30.30
2018-05-07T14:06:37.573Z,30.40
2018-05-07T14:09:03.967Z,30.40
2018-05-07T14:11:29.973Z,30.60
2018-05-07T14:13:55.951Z,30.80
2018-05-07T14:16:22.057Z,31.00
2018-05-07T14:18:48.296Z,31.10
2018-05-07T14:21:14.504Z,30.60
2018-05-07T14:23:40.549Z,30.80
2018-05-07T14:26:06.668Z,31.10
2018-05-07T14:28:34.813Z,31.20
2018-05-07T14:31:01.528Z,31.20
2018-05-07T14:33:27.599Z,31.20
2018-05-07T14:35:54.605Z,31.50
2018-05-07T14:38:20.875Z,31.80
2018-05-07T14:40:47.083Z,31.90
2018-05-07T14:43:13.204Z,31.90
2018-05-07T14:45:39.240Z,31.60
2018-05-07T14:48:05.287Z,31.50
2018-05-07T14:50:31.385Z,31.70
2018-05-07T14:52:57.379Z,31.40
2018-05-07T14:55:30.274Z,31.00
2018-05-07T14:58:04.569Z,31.10
2018-05-07T15:00:30.594Z,31.40
2018-05-07T15:02:56.766Z,30.80
2018-05-07T15:05:22.901Z,31.00
2018-05-07T15:07:49.764Z,31.20
2018-05-07T15:10:16.692Z,31.40
2018-05-07T15:12:43.211Z,31.60
2018-05-07T15:15:09.346Z,31.60
2018-05-07T15:17:35.432Z,31.80
2018-05-07T15:20:01.609Z,31.70
2018-05-07T15:22:27.787Z,31.80
2018-05-07T15:24:53.967Z,31.80
2018-05-07T15:27:20.459Z,31.90
2018-05-07T15:29:47.101Z,31.90
2018-05-07T15:32:13.948Z,32.00
2018-05-07T15:34:42.083Z,32.10
2018-05-07T15:37:08.179Z,31.90
2018-05-07T15:39:34.359Z,31.90
2018-05-07T15:58:45.959Z,32.20
2018-05-07T16:01:12.044Z,32.20
2018-05-07T16:03:38.123Z,32.40
2018-05-07T16:06:04.143Z,32.60
2018-05-07T16:08:30.092Z,32.60
2018-05-07T16:10:56.218Z,32.50
2018-05-07T16:13:22.194Z,32.30
2018-05-07T16:15:48.235Z,32.40
2018-05-07T16:18:14.798Z,32.60
2018-05-07T16:20:40.911Z,32.80
2018-05-07T16:23:06.839Z,32.80
2018-05-07T16:25:32.860Z,32.70
2018-05-07T16:27:58.908Z,33.00
2018-05-07T16:30:25.341Z,33.00
2018-05-07T16:49:40.625Z,31.90
2018-05-07T16:52:07.368Z,31.80
2018-05-07T16:54:33.371Z,31.70
2018-05-07T16:56:59.348Z,31.70
2018-05-07T16:59:25.421Z,31.90
2018-05-07T17:01:51.590Z,31.90
2018-05-07T17:04:17.856Z,32.00
2018-05-07T17:06:43.965Z,31.80
2018-05-07T17:09:14.768Z,31.60
2018-05-07T17:11:40.825Z,31.80
2018-05-07T17:14:15.279Z,32.00
2018-05-07T17:16:41.353Z,32.20
2018-05-07T17:19:07.403Z,32.20
2018-05-07T17:21:33.502Z,32.40
2018-05-07T17:23:59.495Z,32.40
2018-05-07T17:26:25.549Z,32.20
2018-05-07T17:28:51.768Z,32.00
2018-05-07T17:31:19.011Z,32.00
2018-05-07T17:33:46.132Z,32.00
2018-05-07T17:36:18.420Z,32.00
2018-05-07T17:55:29.386Z,32.10
2018-05-07T17:57:55.440Z,32.10
2018-05-07T18:00:21.544Z,32.00
2018-05-07T18:02:47.786Z,32.00
2018-05-07T18:05:14.255Z,32.30
2018-05-07T18:07:40.408Z,32.50
2018-05-07T18:10:06.431Z,32.50
2018-05-07T18:12:32.430Z,32.60
2018-05-07T18:14:58.467Z,33.10
2018-05-07T18:17:24.494Z,33.30
2018-05-07T18:19:50.641Z,33.50
2018-05-07T18:22:16.705Z,33.80
2018-05-07T18:24:43.416Z,33.90
2018-05-07T18:27:09.464Z,33.20
2018-05-07T18:29:35.445Z,32.30
2018-05-07T18:32:01.485Z,31.30
2018-05-07T18:34:27.514Z,30.40
2018-05-07T18:36:53.519Z,30.00
2018-05-07T18:39:19.534Z,29.50
2018-05-07T18:41:57.054Z,28.80
2018-05-07T18:44:23.261Z,28.10
2018-05-07T18:46:49.256Z,27.40
2018-05-07T18:49:15.750Z,26.90
2018-05-07T18:51:41.991Z,26.80
2018-05-07T18:54:08.912Z,26.80
2018-05-07T18:56:35.696Z,26.60
2018-05-07T19:15:47.390Z,25.80
2018-05-07T19:18:13.413Z,25.50
2018-05-07T19:20:39.505Z,25.30
2018-05-07T19:23:05.524Z,25.10
2018-05-07T19:25:31.635Z,24.90
2018-05-07T19:27:57.622Z,24.80
2018-05-07T19:30:23.645Z,24.70
2018-05-07T19:32:49.809Z,24.50
2018-05-07T19:35:16.738Z,24.40
2018-05-07T19:37:42.725Z,24.30
2018-05-07T19:40:08.967Z,24.20
2018-05-07T19:42:35.551Z,24.20
2018-05-07T19:45:01.540Z,24.10
2018-05-07T19:47:27.560Z,23.90
2018-05-07T19:49:55.430Z,23.90
2018-05-07T20:02:25.146Z,23.50
2018-05-07T20:04:51.847Z,23.40
2018-05-07T20:07:18.298Z,23.30
2018-05-07T20:09:44.896Z,23.20
2018-05-07T20:12:11.038Z,23.10
2018-05-07T20:14:37.059Z,23.20
2018-05-07T20:17:03.383Z,23.20
2018-05-07T20:19:29.441Z,23.10
2018-05-07T20:21:55.459Z,23.10
2018-05-07T20:24:21.481Z,23.00
2018-05-07T20:26:47.697Z,22.90
2018-05-07T20:29:14.818Z,23.00
2018-05-07T20:31:40.954Z,22.90
2018-05-07T20:34:07.095Z,22.90
2018-05-07T20:36:33.121Z,22.90
2018-05-07T20:38:59.474Z,22.80
2018-05-07T20:55:40.137Z,22.50
2018-05-07T20:58:07.461Z,22.40
2018-05-07T21:14:46.566Z,22.10
2018-05-07T21:17:13.176Z,22.10
2018-05-07T21:19:40.410Z,21.90
2018-05-07T21:22:07.332Z,21.80
2018-05-07T21:24:33.383Z,21.70
2018-05-07T21:26:59.401Z,21.60
2018-05-07T21:29:25.554Z,21.60
2018-05-07T21:31:51.544Z,21.60
2018-05-07T21:34:17.621Z,21.50
2018-05-07T21:36:43.635Z,21.50
2018-05-07T21:39:09.669Z,21.50
2018-05-07T21:41:35.656Z,21.50
2018-05-07T21:44:01.644Z,21.60
2018-05-07T21:46:27.644Z,21.60
2018-05-07T21:48:53.711Z,21.60
2018-05-07T21:51:19.676Z,21.60
2018-05-07T21:53:45.780Z,21.50
2018-05-07T21:56:11.829Z,21.50
2018-05-07T21:58:37.772Z,21.40
2018-05-07T22:01:03.782Z,21.40
2018-05-07T22:03:29.837Z,21.30
2018-05-07T22:05:55.825Z,21.30
2018-05-07T22:22:37.587Z,20.90
2018-05-07T22:25:03.619Z,20.80
2018-05-07T22:27:29.641Z,20.50
2018-05-07T22:29:55.691Z,20.50
2018-05-07T22:32:21.635Z,20.50
2018-05-07T22:34:47.608Z,20.50
2018-05-07T22:37:13.797Z,20.60
2018-05-07T22:39:39.776Z,20.70
2018-05-07T22:42:05.785Z,20.70
2018-05-07T22:44:31.702Z,20.70
2018-05-07T22:46:57.702Z,20.60
2018-05-07T22:49:23.702Z,20.50
2018-05-07T22:51:49.825Z,20.40
2018-05-07T22:54:16.519Z,20.30
2018-05-07T22:56:42.527Z,20.20
2018-05-07T22:59:08.551Z,20.20
2018-05-07T23:01:34.508Z,20.20
2018-05-07T23:04:00.453Z,20.10
2018-05-07T23:06:26.430Z,20.00
2018-05-07T23:08:52.454Z,19.90
2018-05-07T23:11:18.452Z,19.80
2018-05-07T23:13:44.399Z,19.70
2018-05-07T23:16:10.396Z,19.70
2018-05-07T23:18:36.341Z,19.70
2018-05-07T23:21:02.408Z,19.70
2018-05-07T23:23:28.529Z,19.70
2018-05-07T23:25:54.542Z,19.80
2018-05-07T23:28:20.563Z,19.80
2018-05-07T23:30:46.545Z,19.80
2018-05-07T23:33:12.505Z,19.80
2018-05-07T23:35:38.504Z,19.70
2018-05-07T23:38:04.535Z,19.60
2018-05-07T23:40:30.518Z,19.60
2018-05-07T23:42:56.568Z,19.60
2018-05-07T23:45:22.516Z,19.60
2018-05-07T23:47:48.483Z,19.70
2018-05-07T23:50:14.600Z,19.80
2018-05-07T23:52:40.616Z,19.70
2018-05-07T23:55:06.587Z,19.70
2018-05-07T23:57:32.533Z,19.70
2018-05-07T23:59:58.521Z,19.60
